Time;durP1;ratioP1;P1;durP2;ratioP2;P2;SDS_P1;SDS_P2;PMS_P1;PMS_P2;Temp;Humidity;BMP_temperature;BMP_pressure;BME280_temperature;BME280_humidity;BME280_pressure;Samples;Min_cycle;Max_cycle;Signal;HPM_P1;HPM_P2
2021/12/29 00:01:58;;;;;;;13.40;6.07;;;;;;;4.71;56.85;99636.88;4988761;28;20042;-79
2021/12/29 00:04:24;;;;;;;7.13;5.15;;;;;;;4.71;56.85;99636.88;4987962;28;20473;-78
2021/12/29 00:06:50;;;;;;;14.73;6.70;;;;;;;4.68;56.72;99636.97;4985513;28;20030;-78
2021/12/29 00:09:16;;;;;;;8.98;5.20;;;;;;;4.66;56.44;99636.19;4985803;28;20041;-80
2021/12/29 00:11:42;;;;;;;8.00;4.80;;;;;;;4.66;56.79;99634.44;5000890;28;20188;-78
2021/12/29 00:14:09;;;;;;;14.48;5.78;;;;;;;4.64;56.56;99638.81;4992410;28;20034;-79
2021/12/29 00:16:35;;;;;;;14.85;5.20;;;;;;;4.64;56.69;99652.59;4990195;28;20034;-79
2021/12/29 00:19:03;;;;;;;9.63;5.40;;;;;;;4.66;56.65;99662.91;4989319;28;20046;-81
2021/12/29 00:21:29;;;;;;;10.85;5.68;;;;;;;4.66;56.61;99675.84;5001693;28;20232;-79
2021/12/29 00:23:58;;;;;;;10.32;5.43;;;;;;;4.65;56.49;99674.16;4993572;28;20038;-79
2021/12/29 00:26:29;;;;;;;9.98;5.30;;;;;;;4.63;56.32;99683.69;4994872;28;20117;-79
2021/12/29 00:28:58;;;;;;;10.52;5.68;;;;;;;4.60;56.49;99682.06;4987016;28;20120;-78
2021/12/29 00:31:33;;;;;;;7.28;3.88;;;;;;;4.54;56.66;99696.97;4992894;28;20039;-77
2021/12/29 00:34:19;;;;;;;11.70;5.53;;;;;;;4.49;56.52;99694.53;4997289;28;20135;-80
2021/12/29 00:37:03;;;;;;;10.73;5.38;;;;;;;4.53;56.84;99700.47;4992637;28;20057;-78
2021/12/29 00:39:48;;;;;;;13.23;6.18;;;;;;;4.52;57.04;99709.97;4989814;28;20053;-80
2021/12/29 00:42:32;;;;;;;11.35;5.65;;;;;;;4.58;56.52;99716.66;4986550;28;20049;-80
2021/12/29 00:45:16;;;;;;;11.75;6.10;;;;;;;4.56;56.56;99721.88;4987594;28;20053;-78
2021/12/29 00:47:42;;;;;;;19.88;7.25;;;;;;;4.50;56.49;99723.81;4989862;28;20126;-79
2021/12/29 00:50:13;;;;;;;14.88;5.95;;;;;;;4.45;56.82;99723.97;4983468;28;20065;-79
2021/12/29 00:52:38;;;;;;;12.55;7.03;;;;;;;4.46;56.82;99717.09;5003118;28;20072;-78
2021/12/29 00:55:05;;;;;;;15.90;6.68;;;;;;;4.47;56.74;99731.72;5004861;28;20421;-79
2021/12/29 00:57:30;;;;;;;20.42;6.25;;;;;;;4.43;56.87;99731.81;4987957;28;20476;-79
2021/12/29 00:59:56;;;;;;;15.95;6.80;;;;;;;4.50;57.00;99723.81;4992901;28;20034;-79
2021/12/29 01:02:23;;;;;;;14.68;6.15;;;;;;;4.56;56.53;99731.41;4979129;28;20054;-79
2021/12/29 01:04:48;;;;;;;18.20;6.72;;;;;;;4.40;57.01;99737.06;4989144;28;20030;-78
2021/12/29 01:07:14;;;;;;;13.20;6.07;;;;;;;4.42;57.04;99745.63;4990329;28;20053;-79
2021/12/29 01:09:42;;;;;;;10.85;5.13;;;;;;;4.43;56.64;99737.00;4990788;28;20540;-79
2021/12/29 01:12:08;;;;;;;9.32;5.50;;;;;;;4.33;56.76;99737.34;5003208;28;20046;-78
2021/12/29 01:14:34;;;;;;;12.05;6.25;;;;;;;4.31;56.79;99746.88;4989093;28;20051;-78
2021/12/29 01:17:00;;;;;;;8.40;5.07;;;;;;;4.38;56.98;99753.53;4988044;28;20042;-79
2021/12/29 01:19:28;;;;;;;10.90;5.85;;;;;;;4.37;56.45;99763.06;4990873;28;20504;-80
2021/12/29 01:21:58;;;;;;;10.73;6.38;;;;;;;4.31;57.25;99763.25;4990765;28;20374;-80
2021/12/29 01:24:26;;;;;;;17.02;6.78;;;;;;;4.35;57.24;99764.84;4969302;28;20210;-79
2021/12/29 01:26:53;;;;;;;12.57;6.38;;;;;;;4.35;57.02;99780.38;4987307;28;20514;-79
2021/12/29 01:29:19;;;;;;;27.00;6.35;;;;;;;4.28;57.17;99789.22;4984783;28;20049;-79
2021/12/29 01:31:45;;;;;;;22.90;7.20;;;;;;;4.31;56.96;99794.28;4992764;28;20121;-79
2021/12/29 01:34:12;;;;;;;10.65;5.80;;;;;;;4.38;56.92;99797.53;4989644;28;20625;-79
2021/12/29 01:36:41;;;;;;;8.23;4.75;;;;;;;4.42;56.74;99806.88;4992001;28;20045;-78
2021/12/29 01:39:13;;;;;;;13.63;7.50;;;;;;;4.46;56.76;99818.84;5002874;28;20100;-79
2021/12/29 01:41:40;;;;;;;13.35;7.07;;;;;;;4.47;56.98;99835.22;4982911;28;20102;-79
2021/12/29 01:44:08;;;;;;;14.35;7.22;;;;;;;4.46;56.86;99838.69;4988604;28;20045;-79
2021/12/29 01:46:34;;;;;;;13.55;6.18;;;;;;;4.50;56.89;99842.88;4969022;28;20334;-79
2021/12/29 01:49:01;;;;;;;14.30;6.47;;;;;;;4.45;56.50;99839.56;4973856;28;20112;-79
2021/12/29 01:51:29;;;;;;;17.63;6.43;;;;;;;4.40;56.76;99840.56;4991920;28;20150;-79
2021/12/29 01:54:15;;;;;;;10.82;6.22;;;;;;;4.39;56.69;99838.88;4990804;28;20266;-80
2021/12/29 01:56:44;;;;;;;13.48;6.03;;;;;;;4.38;56.60;99836.34;4991499;28;20038;-79
2021/12/29 01:59:10;;;;;;;9.65;5.88;;;;;;;4.38;56.81;99836.34;4974847;28;20345;-78
2021/12/29 02:01:35;;;;;;;8.18;5.88;;;;;;;4.36;56.87;99843.28;4989920;28;20264;-79
2021/12/29 02:04:01;;;;;;;8.50;4.43;;;;;;;4.41;56.54;99844.84;4989347;28;20070;-79
2021/12/29 02:06:27;;;;;;;15.50;6.78;;;;;;;4.40;56.83;99842.31;4998073;28;20034;-80
2021/12/29 02:08:54;;;;;;;12.70;6.15;;;;;;;4.45;56.77;99863.69;4987710;28;20050;-80
2021/12/29 02:11:29;;;;;;;10.85;5.65;;;;;;;4.44;56.88;99867.19;4990936;28;20041;-80
2021/12/29 02:14:00;;;;;;;13.02;6.15;;;;;;;4.45;56.94;99879.22;4972036;28;20061;-80
2021/12/29 02:16:27;;;;;;;14.00;6.57;;;;;;;4.58;56.80;99884.88;4980534;28;20046;-78
2021/12/29 02:18:54;;;;;;;21.38;7.05;;;;;;;4.55;57.04;99891.00;4987963;28;20076;-79
2021/12/29 02:21:24;;;;;;;13.93;6.43;;;;;;;4.55;56.79;99893.59;4989265;28;20128;-79
2021/12/29 02:26:37;;;;;;;17.33;6.70;;;;;;;4.55;56.90;99892.75;5000951;28;20046;-79
2021/12/29 02:29:06;;;;;;;22.02;7.72;;;;;;;4.55;57.21;99895.34;4997463;28;20034;-78
2021/12/29 02:31:32;;;;;;;29.38;8.05;;;;;;;4.60;56.81;99898.63;4996404;28;20034;-77
2021/12/29 02:33:58;;;;;;;20.00;6.65;;;;;;;4.57;56.98;99903.91;4993831;28;20203;-79
2021/12/29 02:36:24;;;;;;;12.95;6.88;;;;;;;4.54;56.66;99901.41;4991411;28;20192;-79
2021/12/29 02:38:54;;;;;;;20.92;7.70;;;;;;;4.48;56.98;99904.19;4973408;28;20164;-79
2021/12/29 02:41:20;;;;;;;13.05;7.13;;;;;;;4.52;57.11;99914.41;4985589;28;20506;-80
2021/12/29 02:43:46;;;;;;;20.70;7.72;;;;;;;4.52;56.80;99910.94;4987910;28;20050;-79
2021/12/29 02:46:15;;;;;;;18.77;7.00;;;;;;;4.53;56.92;99915.25;4990780;28;20084;-79
2021/12/29 02:48:54;;;;;;;13.85;7.95;;;;;;;4.55;57.44;99916.03;4988954;28;20045;-79
2021/12/29 02:51:20;;;;;;;16.95;6.50;;;;;;;4.55;57.32;99916.03;4989521;28;20042;-79
2021/12/29 02:53:46;;;;;;;20.50;8.77;;;;;;;4.47;57.19;99923.19;4988609;28;20108;-79
2021/12/29 02:56:12;;;;;;;18.67;7.07;;;;;;;4.42;57.72;99931.91;4988654;28;20046;-79
2021/12/29 02:58:37;;;;;;;18.50;7.75;;;;;;;4.49;57.03;99927.41;4988050;28;20050;-79
2021/12/29 03:01:10;;;;;;;22.92;9.20;;;;;;;4.39;57.68;99926.84;4990993;28;20030;-79
2021/12/29 03:03:36;;;;;;;21.23;8.20;;;;;;;4.37;57.36;99933.81;4987623;28;20042;-78
2021/12/29 03:06:04;;;;;;;24.33;7.88;;;;;;;4.19;58.00;99942.09;4988695;28;20102;-79
2021/12/29 03:08:30;;;;;;;28.05;8.63;;;;;;;4.19;58.04;99957.63;4987295;28;20110;-79
2021/12/29 03:10:56;;;;;;;20.55;6.97;;;;;;;4.38;57.68;99950.16;4988707;28;20089;-79
2021/12/29 03:13:28;;;;;;;14.20;7.53;;;;;;;4.34;57.93;99958.91;4988764;28;20204;-79
2021/12/29 03:15:54;;;;;;;14.40;7.93;;;;;;;4.51;57.24;99966.19;4980239;28;20034;-80
2021/12/29 03:18:20;;;;;;;13.68;6.65;;;;;;;4.56;56.87;99969.47;4972820;28;20513;-78
2021/12/29 03:20:46;;;;;;;16.00;6.07;;;;;;;4.53;57.06;99967.84;4982123;28;20030;-79
2021/12/29 03:23:12;;;;;;;11.32;6.35;;;;;;;4.43;57.07;99977.63;4990160;28;20053;-79
2021/12/29 03:25:38;;;;;;;13.25;6.78;;;;;;;4.49;57.11;99989.53;4988798;28;20032;-79
2021/12/29 03:28:04;;;;;;;12.98;7.53;;;;;;;4.49;56.83;99984.34;4975080;28;20048;-79
2021/12/29 03:30:35;;;;;;;14.23;7.65;;;;;;;4.31;57.13;99977.94;4971970;28;20410;-79
2021/12/29 03:33:05;;;;;;;15.32;7.80;;;;;;;4.40;57.03;99979.44;4983611;28;20097;-79
2021/12/29 03:35:36;;;;;;;12.38;7.68;;;;;;;4.46;57.05;99979.28;4975919;28;20045;-78
2021/12/29 03:38:04;;;;;;;17.45;6.55;;;;;;;4.33;57.36;99989.09;4986606;28;20054;-79
2021/12/29 03:40:30;;;;;;;12.52;6.22;;;;;;;4.46;57.12;99993.94;4991963;28;20037;-80
2021/12/29 03:42:56;;;;;;;9.00;5.63;;;;;;;4.46;56.90;100005.16;4988272;28;20046;-79
2021/12/29 03:45:23;;;;;;;12.77;6.32;;;;;;;4.32;57.10;100002.94;4996997;28;20068;-78
2021/12/29 03:47:49;;;;;;;13.68;4.93;;;;;;;4.21;57.61;100005.00;4967191;28;20037;-78
2021/12/29 03:50:16;;;;;;;11.18;5.68;;;;;;;4.40;56.79;100006.16;4989949;28;20576;-79
2021/12/29 03:52:42;;;;;;;7.50;4.40;;;;;;;4.47;57.35;100006.00;4988791;28;20046;-79
2021/12/29 03:55:08;;;;;;;8.98;5.28;;;;;;;4.46;57.13;100005.16;4988339;28;20069;-80
2021/12/29 03:57:34;;;;;;;9.48;4.88;;;;;;;4.51;56.80;100007.59;4985957;28;20514;-79
2021/12/29 03:59:59;;;;;;;9.25;4.88;;;;;;;4.52;56.64;100004.09;4972351;28;20026;-79
2021/12/29 04:02:25;;;;;;;10.27;4.95;;;;;;;4.55;56.45;100010.06;4972105;28;20140;-80
2021/12/29 04:04:52;;;;;;;5.53;4.00;;;;;;;4.54;56.63;100012.69;4988443;28;20132;-79
2021/12/29 04:07:17;;;;;;;9.43;4.78;;;;;;;4.56;56.52;100023.84;4973898;28;20161;-80
2021/12/29 04:09:43;;;;;;;8.52;4.88;;;;;;;4.57;56.72;100034.16;4972759;28;20121;-79
2021/12/29 04:12:09;;;;;;;8.20;4.32;;;;;;;4.50;56.60;100032.63;4989246;28;20047;-79
2021/12/29 04:14:35;;;;;;;7.95;4.57;;;;;;;4.43;56.39;100037.13;4990888;28;20573;-79
2021/12/29 04:17:08;;;;;;;8.32;4.88;;;;;;;4.49;56.40;100045.59;5006223;28;20196;-77
2021/12/29 04:20:54;;;;;;;8.00;3.38;;;;;;;4.45;56.75;100050.00;5008444;28;20022;-79
2021/12/29 04:22:28;;;;;;;8.40;3.35;;;;;;;4.50;56.49;100047.28;4990513;28;20606;-80
2021/12/29 04:24:54;;;;;;;6.22;3.58;;;;;;;4.50;56.38;100048.16;4976993;28;20026;-79
2021/12/29 04:27:22;;;;;;;8.80;3.97;;;;;;;4.48;56.19;100049.09;4989325;28;20061;-80
2021/12/29 04:29:48;;;;;;;6.95;3.75;;;;;;;4.48;56.29;100062.03;4993373;28;20269;-78
2021/12/29 04:32:14;;;;;;;6.88;3.55;;;;;;;4.39;56.58;100065.72;4994523;28;20144;-79
2021/12/29 04:34:39;;;;;;;6.40;3.65;;;;;;;4.38;56.50;100064.00;4974789;28;20034;-79
2021/12/29 04:37:05;;;;;;;5.45;2.92;;;;;;;4.36;56.52;100069.25;4989855;28;20593;-80
2021/12/29 04:39:30;;;;;;;7.38;3.03;;;;;;;4.37;56.42;100070.94;4989909;28;20038;-79
2021/12/29 04:41:56;;;;;;;6.35;3.13;;;;;;;4.30;56.34;100077.16;4972038;28;20057;-80
2021/12/29 04:44:22;;;;;;;5.40;2.60;;;;;;;4.32;56.28;100072.81;4990849;28;20049;-79
2021/12/29 04:46:47;;;;;;;7.57;3.05;;;;;;;4.25;56.46;100068.66;4988137;28;20533;-80
2021/12/29 04:49:15;;;;;;;5.07;2.33;;;;;;;4.28;56.51;100073.78;4988740;28;20379;-79
2021/12/29 04:51:55;;;;;;;4.80;2.10;;;;;;;4.29;56.44;100080.63;4988282;28;20517;-79
2021/12/29 04:54:21;;;;;;;6.72;3.17;;;;;;;4.30;56.53;100087.50;4974696;28;20022;-79
2021/12/29 04:56:46;;;;;;;5.70;2.72;;;;;;;4.35;56.55;100089.97;4986885;28;20046;-80
2021/12/29 04:59:14;;;;;;;6.53;3.50;;;;;;;4.28;56.81;100094.47;4994829;28;20034;-79
2021/12/29 05:01:40;;;;;;;5.53;2.92;;;;;;;4.32;56.97;100101.25;4979403;28;20033;-79
2021/12/29 05:04:06;;;;;;;5.60;2.60;;;;;;;4.40;56.93;100104.47;4992361;28;20427;-79
2021/12/29 05:09:15;;;;;;;11.93;4.20;;;;;;;4.44;56.56;100110.44;4990688;28;20050;-79
2021/12/29 05:11:41;;;;;;;6.03;2.60;;;;;;;4.43;56.37;100109.59;4991784;28;20038;-79
2021/12/29 05:14:06;;;;;;;5.32;2.58;;;;;;;4.38;56.34;100113.16;4993874;28;20038;-79
2021/12/29 05:16:32;;;;;;;29.67;4.07;;;;;;;4.35;56.62;100116.69;4990753;28;20064;-79
2021/12/29 05:18:57;;;;;;;8.80;2.60;;;;;;;4.35;56.53;100123.59;4972803;28;20156;-79
2021/12/29 05:21:25;;;;;;;5.82;2.85;;;;;;;4.38;56.54;100120.94;4993801;28;20128;-78
2021/12/29 05:23:52;;;;;;;3.92;2.35;;;;;;;4.40;56.44;100113.97;4988454;28;20058;-79
2021/12/29 05:26:17;;;;;;;3.33;1.50;;;;;;;4.39;56.37;100107.97;4991561;28;20138;-79
2021/12/29 05:28:44;;;;;;;4.93;2.05;;;;;;;4.42;56.50;100115.63;4994115;28;20082;-79
2021/12/29 05:31:10;;;;;;;3.58;1.52;;;;;;;4.43;56.56;100124.25;4991185;28;20521;-78
2021/12/29 05:33:36;;;;;;;4.20;2.25;;;;;;;4.37;56.23;100125.25;4976204;28;20034;-79
2021/12/29 05:36:03;;;;;;;32.00;2.90;;;;;;;4.24;56.26;100134.22;4992916;28;20034;-79
2021/12/29 05:38:28;;;;;;;12.88;2.25;;;;;;;4.19;56.88;100136.94;4992714;28;20164;-79
2021/12/29 05:40:54;;;;;;;10.57;2.53;;;;;;;4.22;57.11;100142.03;4992482;28;20109;-81
2021/12/29 05:43:19;;;;;;;6.20;1.55;;;;;;;4.17;57.27;100138.72;4975336;28;20046;-80
2021/12/29 05:45:45;;;;;;;12.20;1.80;;;;;;;4.16;57.13;100146.50;4990801;28;20172;-80
2021/12/29 05:48:11;;;;;;;4.28;2.25;;;;;;;4.17;57.47;100154.22;4992121;28;20042;-79
2021/12/29 05:50:36;;;;;;;6.75;2.38;;;;;;;4.16;57.27;100156.84;4992371;28;20077;-79
2021/12/29 05:53:03;;;;;;;6.53;2.40;;;;;;;4.15;57.25;100161.16;4992809;28;20445;-79
2021/12/29 05:55:29;;;;;;;11.30;2.25;;;;;;;4.07;57.46;100167.41;5007548;28;20117;-79
2021/12/29 05:57:55;;;;;;;15.25;2.33;;;;;;;4.03;57.24;100164.06;4989456;28;22419;-80
2021/12/29 06:00:23;;;;;;;6.40;1.60;;;;;;;3.98;57.50;100177.13;4991153;28;20069;-78
2021/12/29 06:02:49;;;;;;;8.88;2.28;;;;;;;4.07;57.02;100178.59;4982531;28;20346;-79
2021/12/29 06:05:14;;;;;;;21.42;2.90;;;;;;;4.02;57.21;100181.31;4975975;28;20038;-80
2021/12/29 06:07:41;;;;;;;7.63;2.45;;;;;;;4.07;57.28;100181.19;4991111;28;20142;-80
2021/12/29 06:10:08;;;;;;;9.50;1.63;;;;;;;4.10;57.06;100180.28;4992696;28;20034;-79
2021/12/29 06:12:35;;;;;;;10.40;2.78;;;;;;;4.08;56.41;100193.25;4990091;28;20030;-80
2021/12/29 06:15:00;;;;;;;6.95;2.38;;;;;;;4.09;56.73;100197.53;4992029;28;20097;-79
2021/12/29 06:17:26;;;;;;;4.95;1.98;;;;;;;4.03;56.72;100200.28;4987913;28;20051;-78
2021/12/29 06:19:51;;;;;;;5.63;2.88;;;;;;;3.95;56.87;100209.94;4975750;28;20040;-79
2021/12/29 06:22:17;;;;;;;5.05;2.08;;;;;;;3.98;57.01;100213.31;4990016;28;20082;-79
2021/12/29 06:24:43;;;;;;;5.88;2.38;;;;;;;3.95;57.00;100215.94;4991583;28;20034;-78
2021/12/29 06:27:09;;;;;;;5.43;2.13;;;;;;;3.98;56.85;100227.97;4992424;28;20050;-79
2021/12/29 06:29:36;;;;;;;10.50;2.80;;;;;;;3.85;56.77;100230.00;4992693;28;20068;-80
2021/12/29 06:32:02;;;;;;;8.00;2.15;;;;;;;3.90;57.08;100246.25;4989487;28;20246;-80
2021/12/29 06:34:29;;;;;;;4.55;1.27;;;;;;;3.97;56.90;100247.78;5000761;28;20030;-79
2021/12/29 06:36:55;;;;;;;19.17;2.80;;;;;;;3.88;57.20;100254.91;4993372;28;20133;-78
2021/12/29 06:39:22;;;;;;;33.03;2.67;;;;;;;3.86;56.95;100260.13;4973007;28;20057;-79
2021/12/29 06:41:47;;;;;;;18.23;2.70;;;;;;;3.75;57.22;100275.00;4989997;28;20099;-78
2021/12/29 06:44:13;;;;;;;22.40;3.55;;;;;;;3.77;57.08;100268.06;4977888;28;20120;-78
2021/12/29 06:46:38;;;;;;;45.47;3.83;;;;;;;3.66;57.16;100270.88;4970119;28;20101;-79
2021/12/29 06:49:04;;;;;;;22.95;3.83;;;;;;;3.68;57.27;100276.03;4991844;28;20038;-79
2021/12/29 06:51:29;;;;;;;13.18;2.97;;;;;;;3.68;57.12;100274.28;4991788;28;20034;-80
2021/12/29 06:53:55;;;;;;;33.20;4.90;;;;;;;3.70;57.34;100276.84;4991049;28;20474;-78
2021/12/29 06:56:21;;;;;;;13.75;5.05;;;;;;;3.74;57.08;100288.84;4990237;28;20196;-80
2021/12/29 06:58:46;;;;;;;15.95;5.88;;;;;;;3.76;57.07;100298.25;4982563;28;20110;-79
2021/12/29 07:01:13;;;;;;;21.75;5.03;;;;;;;3.81;56.70;100305.91;4989711;28;20034;-79
2021/12/29 07:03:39;;;;;;;21.30;5.78;;;;;;;3.75;56.77;100311.19;4988485;28;20049;-80
2021/12/29 07:06:04;;;;;;;18.75;5.70;;;;;;;3.74;56.59;100314.69;4965342;28;20126;-80
2021/12/29 07:08:30;;;;;;;23.77;7.50;;;;;;;3.74;56.77;100314.69;4977536;28;20115;-79
2021/12/29 07:10:55;;;;;;;16.75;6.78;;;;;;;3.72;56.88;100321.63;4990017;28;20066;-79
2021/12/29 07:13:21;;;;;;;26.20;9.00;;;;;;;3.85;56.85;100323.06;4975082;28;20038;-79
2021/12/29 07:15:47;;;;;;;20.10;7.28;;;;;;;3.86;56.81;100323.91;4988995;28;20038;-79
2021/12/29 07:18:13;;;;;;;21.73;6.93;;;;;;;3.91;56.63;100328.06;4975285;28;20104;-79
2021/12/29 07:20:39;;;;;;;20.10;6.72;;;;;;;3.92;56.45;100329.81;4974456;28;20500;-79
2021/12/29 07:23:05;;;;;;;24.60;8.77;;;;;;;4.00;56.53;100329.63;4982251;28;20049;-79
2021/12/29 07:25:30;;;;;;;32.60;12.30;;;;;;;3.93;56.19;100326.31;4984182;28;20062;-81
2021/12/29 07:27:56;;;;;;;49.35;14.75;;;;;;;3.86;56.81;100342.84;4979129;28;20049;-79
2021/12/29 07:30:22;;;;;;;51.00;13.30;;;;;;;3.69;57.44;100342.34;4996083;28;20090;-79
2021/12/29 07:32:48;;;;;;;36.83;12.18;;;;;;;3.87;57.02;100352.28;4972735;28;20046;-79
2021/12/29 07:35:14;;;;;;;27.58;9.35;;;;;;;3.92;56.97;100350.47;4991184;28;20537;-79
2021/12/29 07:37:40;;;;;;;36.72;10.90;;;;;;;4.01;56.97;100355.47;4990443;28;20448;-79
2021/12/29 07:40:08;;;;;;;38.72;12.57;;;;;;;4.04;56.93;100364.03;4972421;28;20493;-79
2021/12/29 07:42:39;;;;;;;29.38;10.15;;;;;;;4.10;56.38;100362.19;4972895;28;20046;-78
2021/12/29 07:45:08;;;;;;;40.13;10.85;;;;;;;4.10;56.35;100371.69;4969380;28;20152;-77
2021/12/29 07:47:46;;;;;;;66.90;12.77;;;;;;;4.01;56.35;100381.31;4987525;28;20538;-79
2021/12/29 07:50:12;;;;;;;57.55;11.00;;;;;;;4.00;56.57;100383.94;5004932;28;20045;-79
2021/12/29 07:52:38;;;;;;;28.80;9.90;;;;;;;4.01;56.44;100383.91;4975113;28;20043;-79
2021/12/29 07:55:04;;;;;;;27.17;9.70;;;;;;;3.98;56.34;100381.41;4971751;28;20158;-78
2021/12/29 07:57:30;;;;;;;23.45;8.93;;;;;;;4.01;56.48;100383.91;4980765;28;20055;-78
2021/12/29 07:59:55;;;;;;;21.23;8.30;;;;;;;4.05;56.22;100370.91;4970064;28;20084;-78
2021/12/29 08:02:27;;;;;;;31.73;10.43;;;;;;;4.01;56.37;100370.13;4984201;28;20042;-78
2021/12/29 08:04:55;;;;;;;38.28;10.80;;;;;;;3.94;56.33;100363.34;4984462;28;20022;-78
2021/12/29 08:07:21;;;;;;;29.45;9.63;;;;;;;3.94;56.71;100369.41;4971619;28;20046;-78
2021/12/29 08:09:47;;;;;;;30.00;9.13;;;;;;;3.99;56.59;100375.31;4990042;28;20041;-78
2021/12/29 08:12:12;;;;;;;29.95;10.38;;;;;;;3.99;56.44;100372.75;4989648;28;20042;-79
2021/12/29 08:14:38;;;;;;;30.00;9.60;;;;;;;3.97;56.48;100382.25;4971598;28;20455;-79
2021/12/29 08:17:04;;;;;;;38.17;10.10;;;;;;;3.97;56.72;100374.50;4982472;28;20053;-79
2021/12/29 08:19:29;;;;;;;18.77;7.53;;;;;;;3.95;56.59;100378.00;4990034;28;20190;-79
2021/12/29 08:21:55;;;;;;;29.60;10.27;;;;;;;4.08;56.48;100378.63;4988819;28;20033;-79
2021/12/29 08:24:20;;;;;;;31.60;10.45;;;;;;;4.04;56.52;100397.66;4973231;28;20041;-79
2021/12/29 08:26:46;;;;;;;71.57;11.02;;;;;;;3.79;56.65;100395.56;4988922;28;20045;-79
2021/12/29 08:29:12;;;;;;;36.10;10.93;;;;;;;3.83;57.10;100407.56;4989218;28;20121;-79
2021/12/29 08:31:37;;;;;;;26.45;8.82;;;;;;;3.92;56.93;100417.72;4974292;28;20298;-79
2021/12/29 08:34:03;;;;;;;38.63;11.68;;;;;;;3.88;56.94;100421.22;4978867;28;20465;-79
2021/12/29 08:36:29;;;;;;;43.97;12.65;;;;;;;3.97;56.87;100415.88;4994692;28;20034;-79
2021/12/29 08:38:54;;;;;;;136.65;12.18;;;;;;;3.58;57.19;100415.78;4995667;28;20164;-78
2021/12/29 08:41:20;;;;;;;64.10;10.27;;;;;;;3.66;57.37;100427.69;4978219;28;20053;-78
2021/12/29 08:43:47;;;;;;;83.55;11.27;;;;;;;3.82;57.38;100421.34;4976941;28;20437;-79
2021/12/29 08:46:14;;;;;;;82.75;12.32;;;;;;;3.79;57.08;100431.75;4979144;28;20019;-78
2021/12/29 08:48:42;;;;;;;38.60;9.55;;;;;;;3.78;57.42;100445.53;4991199;28;20042;-78
2021/12/29 08:51:08;;;;;;;45.10;11.05;;;;;;;3.78;57.17;100443.84;4992930;28;20030;-78
2021/12/29 08:53:35;;;;;;;51.58;12.63;;;;;;;3.73;57.64;100439.63;4991343;28;20046;-78
2021/12/29 08:56:01;;;;;;;63.22;11.82;;;;;;;3.82;57.38;100442.03;4975084;28;20076;-78
2021/12/29 08:58:27;;;;;;;28.40;8.90;;;;;;;3.96;57.25;100450.38;4991998;28;20110;-79
2021/12/29 09:00:55;;;;;;;35.33;11.25;;;;;;;4.10;56.99;100441.50;4993336;28;20038;-79
2021/12/29 09:03:20;;;;;;;40.03;10.65;;;;;;;4.11;56.61;100438.03;4988659;28;20429;-79
2021/12/29 09:05:46;;;;;;;51.65;13.82;;;;;;;4.16;56.85;100434.47;4991519;28;20045;-79
2021/12/29 09:08:12;;;;;;;39.72;11.27;;;;;;;4.21;56.86;100443.00;4997115;28;20050;-79
2021/12/29 09:10:38;;;;;;;28.60;9.52;;;;;;;4.28;56.76;100441.13;4975997;28;20018;-79
2021/12/29 09:13:04;;;;;;;25.52;9.75;;;;;;;4.22;56.51;100436.06;4989628;28;20049;-79
2021/12/29 09:15:31;;;;;;;45.25;11.15;;;;;;;4.24;56.72;100452.41;4987078;28;20039;-79
2021/12/29 09:17:57;;;;;;;42.90;11.02;;;;;;;4.28;56.85;100472.19;4967523;28;20082;-79
2021/12/29 09:20:27;;;;;;;36.78;11.32;;;;;;;4.11;57.15;100476.81;4972642;28;20069;-79
2021/12/29 09:22:56;;;;;;;34.80;10.98;;;;;;;4.34;56.81;100466.00;4986087;28;20046;-79
2021/12/29 09:25:23;;;;;;;27.75;10.40;;;;;;;4.31;56.92;100456.56;4992276;28;20536;-79
2021/12/29 09:27:50;;;;;;;38.65;10.35;;;;;;;4.31;56.80;100459.16;4979247;28;20046;-79
2021/12/29 09:30:21;;;;;;;59.45;11.52;;;;;;;4.36;56.59;100454.78;4988986;28;20084;-79
2021/12/29 09:32:47;;;;;;;;;;;;;;;4.37;56.87;100461.63;4987862;28;20061;-79
2021/12/29 09:35:13;;;;;;;45.25;11.27;;;;;;;4.54;56.89;100469.06;4988875;28;19913;-79
2021/12/29 09:37:40;;;;;;;42.63;13.10;;;;;;;4.46;56.60;100465.78;4972837;28;20145;-79
2021/12/29 09:40:07;;;;;;;33.80;11.30;;;;;;;4.58;56.74;100460.31;4988186;28;20035;-79
2021/12/29 09:42:32;;;;;;;45.80;11.73;;;;;;;4.29;56.83;100463.50;4987397;28;20094;-79
2021/12/29 09:44:58;;;;;;;69.20;12.75;;;;;;;4.30;57.00;100469.56;4970718;28;20031;-80
2021/12/29 09:47:24;;;;;;;63.20;12.40;;;;;;;4.32;56.83;100473.81;4992167;28;20038;-79
2021/12/29 09:49:50;;;;;;;48.65;10.68;;;;;;;4.36;56.80;100475.47;4988344;28;20675;-80
2021/12/29 09:52:15;;;;;;;24.45;9.05;;;;;;;4.49;56.47;100491.56;4982382;28;20197;-79
2021/12/29 09:54:41;;;;;;;35.45;8.60;;;;;;;4.48;56.11;100483.88;4988740;28;20034;-78
2021/12/29 09:57:07;;;;;;;24.63;8.30;;;;;;;4.60;56.43;100476.66;4986694;28;20376;-80
2021/12/29 09:59:33;;;;;;;26.00;10.50;;;;;;;4.66;56.72;100474.84;4986602;28;20142;-79
2021/12/29 10:01:59;;;;;;;24.90;7.43;;;;;;;4.74;56.65;100468.59;4987325;28;20046;-79
2021/12/29 10:04:25;;;;;;;32.65;8.98;;;;;;;4.72;56.40;100470.38;5003040;28;20157;-78
2021/12/29 10:06:51;;;;;;;18.83;6.82;;;;;;;4.86;56.18;100469.22;4985839;28;20168;-79
2021/12/29 10:09:19;;;;;;;24.50;8.75;;;;;;;4.88;56.52;100473.53;4970992;28;20042;-79
2021/12/29 10:11:47;;;;;;;35.38;8.25;;;;;;;4.90;56.37;100460.50;4986279;28;20046;-79
2021/12/29 10:14:16;;;;;;;17.63;7.45;;;;;;;4.86;56.41;100464.06;4991581;28;20141;-78
2021/12/29 10:16:45;;;;;;;30.65;8.50;;;;;;;4.88;56.39;100468.34;4985441;28;20065;-79
2021/12/29 10:19:13;;;;;;;27.90;9.38;;;;;;;4.86;55.98;100461.47;4985944;28;20048;-79
2021/12/29 10:21:45;;;;;;;22.92;8.43;;;;;;;4.88;56.25;100468.34;4969694;28;20034;-79
2021/12/29 10:24:11;;;;;;;;;;;;;;;4.73;56.83;100468.66;4994102;28;20106;-79
2021/12/29 10:26:43;;;;;;;26.52;8.05;;;;;;;4.83;56.65;100464.94;4989702;28;20105;-78
2021/12/29 10:29:13;;;;;;;29.05;9.07;;;;;;;4.77;56.25;100455.59;4971548;28;20057;-79
2021/12/29 10:31:46;;;;;;;51.97;8.93;;;;;;;4.76;56.44;100459.06;4969913;28;20527;-80
2021/12/29 10:34:17;;;;;;;24.83;9.23;;;;;;;4.87;56.66;100455.38;4968555;28;20167;-79
2021/12/29 10:36:45;;;;;;;16.67;6.25;;;;;;;4.93;56.67;100450.09;4986052;28;20034;-78
2021/12/29 10:39:13;;;;;;;24.80;8.57;;;;;;;4.97;56.45;100454.34;4985848;28;20184;-78
2021/12/29 10:41:58;;;;;;;72.82;10.80;;;;;;;4.66;57.32;100461.91;4966824;28;20133;-79
2021/12/29 10:44:28;;;;;;;53.72;9.50;;;;;;;4.87;56.61;100460.56;4989064;28;20039;-80
2021/12/29 10:46:56;;;;;;;33.67;9.20;;;;;;;4.98;56.68;100459.44;4978145;28;20121;-80
2021/12/29 10:49:24;;;;;;;48.63;8.82;;;;;;;4.98;56.56;100468.97;4994352;28;20401;-78
2021/12/29 10:51:50;;;;;;;26.55;8.85;;;;;;;4.98;56.69;100469.81;4973288;28;20038;-78
2021/12/29 10:54:20;;;;;;;29.52;9.02;;;;;;;5.01;56.50;100469.75;4988634;28;20038;-78
2021/12/29 10:57:04;;;;;;;41.85;9.93;;;;;;;5.09;56.84;100477.34;4988313;28;20039;-77
2021/12/29 10:59:34;;;;;;;30.13;10.75;;;;;;;5.15;56.73;100482.38;4964141;28;20034;-78
2021/12/29 11:02:00;;;;;;;34.05;10.75;;;;;;;4.98;56.71;100479.31;4973112;28;20042;-79
2021/12/29 11:04:26;;;;;;;64.47;12.00;;;;;;;4.50;57.89;100488.13;4977265;28;20433;-79
2021/12/29 11:06:56;;;;;;;32.45;8.90;;;;;;;4.54;58.02;100479.41;4984017;28;20046;-78
2021/12/29 11:09:26;;;;;;;36.67;11.80;;;;;;;4.87;57.41;100492.47;4986032;28;20018;-77
2021/12/29 11:11:52;;;;;;;41.53;11.98;;;;;;;4.90;56.81;100495.06;4979217;28;20045;-78
2021/12/29 11:14:22;;;;;;;58.72;12.68;;;;;;;4.92;56.50;100485.53;4966239;28;20181;-79
2021/12/29 11:17:10;;;;;;;35.10;9.98;;;;;;;4.83;57.12;100486.53;4963657;28;20034;-77
2021/12/29 11:19:37;;;;;;;28.65;10.32;;;;;;;4.99;56.64;100491.41;4993150;28;20037;-79
2021/12/29 11:22:15;;;;;;;48.88;12.27;;;;;;;4.92;56.98;100493.28;4979334;28;20041;-79
2021/12/29 11:24:43;;;;;;;46.83;12.25;;;;;;;4.93;56.86;100496.72;4964408;28;20053;-79
2021/12/29 11:27:17;;;;;;;42.08;11.40;;;;;;;5.07;56.74;100497.25;4964127;28;20038;-78
2021/12/29 11:29:57;;;;;;;31.30;10.07;;;;;;;5.13;56.76;100507.47;4968740;28;20039;-78
2021/12/29 11:32:35;;;;;;;36.55;12.93;;;;;;;5.22;57.17;100509.00;4994473;28;20062;-79
2021/12/29 11:35:07;;;;;;;34.20;11.70;;;;;;;5.15;57.25;100508.28;4963678;28;20140;-79
2021/12/29 11:37:34;;;;;;;43.92;13.48;;;;;;;5.27;57.12;100521.84;4964269;28;20085;-79